createdAt,value
2022-10-07T00:01:23.980Z,7.29
2022-10-07T00:06:28.535Z,7.20
2022-10-07T00:11:31.271Z,7.82
2022-10-07T00:16:36.881Z,8.48
2022-10-07T00:21:41.705Z,8.47
2022-10-07T00:26:44.637Z,8.42
2022-10-07T00:31:47.452Z,7.30
2022-10-07T00:36:51.739Z,7.17
2022-10-07T00:41:54.366Z,7.55
2022-10-07T00:46:57.256Z,7.14
2022-10-07T00:52:01.206Z,7.54
2022-10-07T00:57:05.096Z,6.92
2022-10-07T01:02:09.307Z,6.95
2022-10-07T01:07:15.451Z,7.01
2022-10-07T01:12:24.465Z,6.45
2022-10-07T01:17:37.882Z,6.97
2022-10-07T01:22:54.431Z,7.34
2022-10-07T01:28:04.986Z,6.94
2022-10-07T01:33:14.170Z,6.84
2022-10-07T01:38:21.135Z,6.54
2022-10-07T01:43:25.359Z,6.54
2022-10-07T01:48:28.024Z,6.00
2022-10-07T01:53:45.554Z,6.43
2022-10-07T01:59:13.975Z,6.56
2022-10-07T02:04:31.045Z,6.96
2022-10-07T02:09:38.492Z,6.34
2022-10-07T02:14:50.676Z,6.50
2022-10-07T02:19:56.474Z,6.33
2022-10-07T02:25:01.067Z,5.92
2022-10-07T02:30:07.539Z,6.22
2022-10-07T02:35:17.504Z,6.52
2022-10-07T02:40:21.420Z,6.23
2022-10-07T02:45:33.171Z,6.09
2022-10-07T02:50:41.103Z,5.96
2022-10-07T02:55:46.153Z,5.91
2022-10-07T03:00:58.548Z,6.51
2022-10-07T03:06:01.799Z,6.61
2022-10-07T03:11:04.364Z,6.34
2022-10-07T03:16:08.491Z,5.80
2022-10-07T03:21:11.138Z,6.03
2022-10-07T03:26:13.738Z,6.08
2022-10-07T03:31:17.781Z,6.18
2022-10-07T03:36:20.400Z,6.81
2022-10-07T03:41:23.241Z,7.31
2022-10-07T03:46:27.281Z,7.13
2022-10-07T03:51:29.919Z,6.69
2022-10-07T03:56:32.533Z,6.01
2022-10-07T04:01:37.344Z,6.12
2022-10-07T04:06:39.910Z,6.90
2022-10-07T04:11:43.705Z,7.21
2022-10-07T04:16:47.650Z,6.12
2022-10-07T04:21:50.318Z,6.92
2022-10-07T04:26:52.870Z,7.16
2022-10-07T04:31:58.836Z,7.31
2022-10-07T04:37:01.608Z,7.52
2022-10-07T04:42:04.204Z,7.04
2022-10-07T04:47:08.206Z,7.00
2022-10-07T04:52:11.150Z,7.33
2022-10-07T04:57:14.468Z,7.09
2022-10-07T05:02:18.445Z,6.79
2022-10-07T05:07:21.026Z,5.95
2022-10-07T05:12:25.885Z,6.49
2022-10-07T05:17:30.084Z,6.59
2022-10-07T05:22:32.701Z,5.58
2022-10-07T05:27:35.279Z,6.09
2022-10-07T05:32:39.998Z,6.16
2022-10-07T05:37:45.407Z,6.66
2022-10-07T05:42:50.770Z,6.12
2022-10-07T05:47:54.933Z,6.45
2022-10-07T05:52:58.008Z,6.75
2022-10-07T05:58:00.753Z,7.14
2022-10-07T06:03:05.049Z,7.38
2022-10-07T06:08:07.711Z,7.56
2022-10-07T06:13:10.545Z,7.42
2022-10-07T06:18:14.741Z,7.51
2022-10-07T06:23:17.745Z,7.62
2022-10-07T06:28:20.297Z,7.67
2022-10-07T06:33:24.329Z,7.79
2022-10-07T06:38:27.094Z,7.82
2022-10-07T06:43:31.926Z,7.22
2022-10-07T06:48:36.713Z,8.15
2022-10-07T06:53:39.391Z,8.44
2022-10-07T06:58:42.579Z,8.25
2022-10-07T07:03:49.310Z,8.64
2022-10-07T07:08:52.124Z,9.05
2022-10-07T07:13:54.803Z,9.09
2022-10-07T07:19:01.792Z,9.38
2022-10-07T07:24:04.697Z,9.81
2022-10-07T07:29:08.086Z,9.84
2022-10-07T07:34:13.605Z,10.15
2022-10-07T07:39:18.237Z,10.35
2022-10-07T07:44:21.354Z,10.57
2022-10-07T07:49:25.969Z,10.63
2022-10-07T07:54:28.906Z,11.10
2022-10-07T07:59:33.143Z,11.15
2022-10-07T08:04:37.051Z,11.34
2022-10-07T08:09:39.672Z,11.22
2022-10-07T08:14:43.252Z,12.00
2022-10-07T08:19:47.261Z,12.10
2022-10-07T08:24:49.862Z,12.38
2022-10-07T08:29:52.636Z,12.47
2022-10-07T08:34:56.560Z,12.66
2022-10-07T08:39:59.086Z,13.01
2022-10-07T08:45:02.269Z,13.04
2022-10-07T08:50:16.718Z,13.35
2022-10-07T08:55:28.037Z,13.99
2022-10-07T09:00:40.922Z,13.92
2022-10-07T09:05:49.991Z,14.21
2022-10-07T09:10:53.536Z,14.43
2022-10-07T09:16:00.295Z,15.01
2022-10-07T09:21:09.599Z,15.03
2022-10-07T09:26:13.500Z,15.62
2022-10-07T09:31:17.143Z,16.06
2022-10-07T09:36:21.226Z,16.33
2022-10-07T09:41:31.406Z,16.46
2022-10-07T09:46:53.316Z,17.00
2022-10-07T09:52:05.641Z,16.72
2022-10-07T09:57:33.936Z,17.08
2022-10-07T10:02:37.101Z,17.91
2022-10-07T10:07:54.288Z,19.03
2022-10-07T10:12:59.207Z,21.24
2022-10-07T10:18:01.834Z,26.42
2022-10-07T10:23:26.470Z,29.88
2022-10-07T10:28:40.327Z,27.84
2022-10-07T10:33:48.251Z,30.86
2022-10-07T10:39:01.474Z,32.59
2022-10-07T10:44:33.439Z,30.87
2022-10-07T10:49:39.258Z,33.49
2022-10-07T10:54:58.258Z,35.80
2022-10-07T11:00:11.208Z,33.49
2022-10-07T11:05:17.325Z,31.67
2022-10-07T11:10:25.527Z,33.45
2022-10-07T11:15:37.084Z,35.27
2022-10-07T11:20:44.920Z,34.16
2022-10-07T11:25:54.190Z,35.48
2022-10-07T11:31:06.087Z,37.18
2022-10-07T11:36:15.270Z,34.86
2022-10-07T11:41:26.011Z,35.34
2022-10-07T11:46:33.738Z,32.69
2022-10-07T11:51:40.197Z,36.12
2022-10-07T11:56:49.862Z,36.36
2022-10-07T12:01:53.700Z,31.38
2022-10-07T12:07:34.812Z,34.94
2022-10-07T12:12:51.823Z,33.63
2022-10-07T12:18:28.437Z,34.42
2022-10-07T12:23:42.720Z,37.48
2022-10-07T12:28:48.727Z,36.80
2022-10-07T12:33:59.067Z,36.48
2022-10-07T12:39:37.059Z,35.16
2022-10-07T12:44:45.493Z,38.95
2022-10-07T12:49:53.114Z,39.17
2022-10-07T12:54:59.576Z,38.02
2022-10-07T13:00:08.067Z,34.66
2022-10-07T13:05:56.081Z,36.43
2022-10-07T13:11:35.358Z,36.19
2022-10-07T13:16:45.086Z,38.08
2022-10-07T13:21:56.420Z,39.06
2022-10-07T13:27:00.944Z,35.57
2022-10-07T13:32:05.962Z,39.02
2022-10-07T13:37:27.475Z,32.66
2022-10-07T13:42:31.508Z,32.63
2022-10-07T13:47:35.146Z,30.46
2022-10-07T13:52:40.785Z,32.36
2022-10-07T13:57:45.499Z,35.82
2022-10-07T14:02:50.846Z,36.19
2022-10-07T14:07:55.871Z,37.80
2022-10-07T14:13:03.271Z,34.59
2022-10-07T14:18:08.783Z,36.67
2022-10-07T14:23:21.579Z,36.17
2022-10-07T14:28:30.997Z,31.14
2022-10-07T14:34:03.438Z,35.47
2022-10-07T14:39:25.107Z,34.27
2022-10-07T14:44:30.101Z,35.24
2022-10-07T14:49:32.779Z,32.75
2022-10-07T14:54:35.883Z,30.96
2022-10-07T14:59:39.714Z,28.83
2022-10-07T15:04:45.217Z,27.81
2022-10-07T15:09:48.554Z,26.32
2022-10-07T15:14:52.693Z,25.05
2022-10-07T15:19:55.385Z,24.71
2022-10-07T15:24:58.229Z,23.99
2022-10-07T15:30:02.190Z,22.91
2022-10-07T15:35:05.106Z,22.73
2022-10-07T15:40:09.454Z,21.85
2022-10-07T15:45:13.678Z,21.31
2022-10-07T15:50:16.597Z,21.00
2022-10-07T15:55:19.646Z,20.60
2022-10-07T16:00:23.645Z,20.11
2022-10-07T16:05:26.238Z,19.75
2022-10-07T16:10:28.817Z,19.00
2022-10-07T16:15:32.866Z,16.39
2022-10-07T16:20:39.694Z,17.03
2022-10-07T16:25:42.455Z,17.24
2022-10-07T16:30:51.193Z,16.90
2022-10-07T16:35:53.868Z,16.31
2022-10-07T16:40:59.003Z,15.96
2022-10-07T16:46:04.676Z,14.95
2022-10-07T16:51:10.373Z,14.75
2022-10-07T16:56:13.661Z,15.27
2022-10-07T17:01:18.163Z,15.54
2022-10-07T17:06:22.495Z,15.21
2022-10-07T17:11:31.433Z,13.85
2022-10-07T17:16:37.833Z,13.65
2022-10-07T17:21:42.057Z,13.97
2022-10-07T17:26:45.509Z,14.18
2022-10-07T17:31:51.201Z,14.37
2022-10-07T17:36:54.039Z,14.42
2022-10-07T17:41:57.515Z,14.67
2022-10-07T17:47:03.803Z,15.20
2022-10-07T17:52:06.679Z,14.90
2022-10-07T17:57:14.601Z,15.44
2022-10-07T18:02:18.854Z,15.66
2022-10-07T18:07:21.893Z,15.77
2022-10-07T18:12:42.219Z,16.14
2022-10-07T18:17:47.871Z,16.03
2022-10-07T18:22:57.288Z,15.79
2022-10-07T18:28:02.528Z,15.96
2022-10-07T18:33:06.559Z,16.06
2022-10-07T18:38:09.112Z,15.67
2022-10-07T18:43:11.739Z,14.94
2022-10-07T18:48:15.885Z,14.43
2022-10-07T18:53:18.453Z,15.09
2022-10-07T18:58:22.392Z,14.72
2022-10-07T19:03:29.379Z,14.64
2022-10-07T19:08:32.000Z,14.77
2022-10-07T19:13:50.910Z,14.98
2022-10-07T19:18:56.729Z,15.12
2022-10-07T19:24:01.503Z,14.92
2022-10-07T19:29:06.580Z,15.07
2022-10-07T19:34:14.403Z,14.72
2022-10-07T19:39:18.921Z,14.62
2022-10-07T19:44:22.125Z,14.49
2022-10-07T19:49:26.329Z,14.42
2022-10-07T19:54:30.427Z,14.39
2022-10-07T19:59:33.028Z,14.19
2022-10-07T20:04:36.913Z,14.24
2022-10-07T20:09:39.548Z,14.13
2022-10-07T20:14:42.223Z,14.12
2022-10-07T20:19:46.139Z,14.37
2022-10-07T20:24:48.814Z,14.28
2022-10-07T20:30:02.374Z,13.98
2022-10-07T20:35:10.653Z,14.26
2022-10-07T20:40:31.165Z,14.05
2022-10-07T20:45:54.359Z,14.14
2022-10-07T20:51:04.452Z,14.31
2022-10-07T20:56:08.714Z,14.05
2022-10-07T21:01:11.474Z,14.23
2022-10-07T21:06:18.119Z,14.20
2022-10-07T21:11:20.705Z,13.84
2022-10-07T21:16:24.234Z,13.88
2022-10-07T21:21:29.014Z,14.04
2022-10-07T21:26:31.615Z,13.90
2022-10-07T21:31:35.693Z,13.80
2022-10-07T21:36:49.224Z,13.11
2022-10-07T21:41:54.684Z,13.07
2022-10-07T21:46:59.831Z,13.08
2022-10-07T21:52:04.009Z,13.30
2022-10-07T21:57:06.604Z,13.35
2022-10-07T22:02:09.454Z,13.24
2022-10-07T22:07:31.168Z,13.41
2022-10-07T22:12:33.838Z,13.09
2022-10-07T22:17:36.786Z,12.91
2022-10-07T22:22:41.248Z,12.87
2022-10-07T22:27:43.931Z,13.27
2022-10-07T22:32:46.701Z,13.23
2022-10-07T22:37:50.805Z,13.20
2022-10-07T22:42:53.669Z,13.19
2022-10-07T22:47:56.257Z,13.39
2022-10-07T22:53:00.439Z,13.38
2022-10-07T22:58:03.095Z,13.42
2022-10-07T23:03:06.215Z,13.45
2022-10-07T23:08:10.198Z,13.40
2022-10-07T23:13:12.704Z,13.20
2022-10-07T23:18:15.283Z,13.40
2022-10-07T23:23:19.208Z,13.39
2022-10-07T23:28:23.751Z,13.43
2022-10-07T23:33:26.405Z,13.41
2022-10-07T23:38:30.854Z,13.29
2022-10-07T23:43:33.654Z,12.85
2022-10-07T23:48:36.243Z,12.68
2022-10-07T23:53:40.372Z,13.05
2022-10-07T23:58:42.986Z,13.16
